Time;durP1;ratioP1;P1;durP2;ratioP2;P2;SDS_P1;SDS_P2;PMS_P1;PMS_P2;Temp;Humidity;BMP_temperature;BMP_pressure;BME280_temperature;BME280_humidity;BME280_pressure;Samples;Min_cycle;Max_cycle;Signal;HPM_P1;HPM_P2
2021/01/27 00:01:28;;;;;;;12.25;4.43;;;1.80;99.90;;;;;;4949732;29;20074;-82
2021/01/27 00:03:54;;;;;;;9.55;4.55;;;1.90;99.90;;;;;;4949998;29;20047;-83
2021/01/27 00:06:20;;;;;;;7.70;3.67;;;1.90;99.90;;;;;;4949531;29;20028;-83
2021/01/27 00:08:45;;;;;;;8.05;3.53;;;1.80;99.90;;;;;;4949777;29;20055;-82
2021/01/27 00:11:11;;;;;;;8.25;3.83;;;1.80;99.90;;;;;;4949939;29;20039;-83
2021/01/27 00:13:36;;;;;;;7.13;3.47;;;1.80;99.90;;;;;;4949983;29;20087;-83
2021/01/27 00:16:02;;;;;;;7.13;3.20;;;1.70;99.90;;;;;;4970340;28;20049;-83
2021/01/27 00:18:28;;;;;;;8.02;3.60;;;1.70;99.90;;;;;;4988400;28;20121;-83
2021/01/27 00:20:53;;;;;;;8.68;4.40;;;1.70;99.90;;;;;;4972062;28;20548;-82
2021/01/27 00:23:19;;;;;;;6.55;3.30;;;1.60;99.90;;;;;;4972155;28;20037;-83
2021/01/27 00:25:45;;;;;;;9.60;4.78;;;1.60;99.90;;;;;;4971911;28;20098;-83
2021/01/27 00:28:10;;;;;;;7.10;3.63;;;1.60;99.90;;;;;;4972160;28;20030;-83
2021/01/27 00:30:42;;;;;;;7.53;4.15;;;1.60;99.90;;;;;;4983273;28;20054;-83
2021/01/27 00:33:09;;;;;;;8.95;4.20;;;1.60;99.90;;;;;;4952644;29;20065;-83
2021/01/27 00:35:38;;;;;;;5.70;3.05;;;1.70;99.90;;;;;;4968344;29;20035;-83
2021/01/27 00:38:10;;;;;;;6.60;3.17;;;1.70;99.90;;;;;;4952679;29;20035;-83
2021/01/27 00:40:36;;;;;;;7.68;3.28;;;1.60;99.90;;;;;;4952612;29;20126;-83
2021/01/27 00:43:02;;;;;;;6.40;2.53;;;1.60;99.90;;;;;;4952632;29;20050;-83
2021/01/27 00:45:27;;;;;;;5.72;2.50;;;1.60;99.90;;;;;;4968499;29;20059;-83
2021/01/27 00:47:53;;;;;;;7.28;2.83;;;1.60;99.90;;;;;;4952365;29;20051;-83
2021/01/27 00:50:19;;;;;;;5.85;2.05;;;1.60;99.90;;;;;;4952318;29;20024;-83
2021/01/27 00:52:49;;;;;;;6.93;2.67;;;1.60;99.90;;;;;;4953100;29;20039;-83
2021/01/27 00:55:20;;;;;;;7.32;3.28;;;1.60;99.90;;;;;;4952489;29;20039;-83
2021/01/27 00:57:50;;;;;;;5.40;3.30;;;1.70;99.90;;;;;;4952794;29;20480;-83
2021/01/27 01:00:19;;;;;;;6.63;3.38;;;1.70;99.90;;;;;;4951327;29;20042;-82
2021/01/27 01:02:45;;;;;;;7.25;3.60;;;1.70;99.90;;;;;;4968244;29;20120;-83
2021/01/27 01:05:14;;;;;;;10.35;2.75;;;1.70;99.90;;;;;;4967992;29;20027;-83
2021/01/27 01:07:46;;;;;;;5.75;2.90;;;1.70;99.90;;;;;;4951819;29;20058;-83
2021/01/27 01:10:38;;;;;;;6.07;2.75;;;1.70;99.90;;;;;;4952031;29;20042;-84
2021/01/27 01:13:06;;;;;;;6.80;3.30;;;1.70;99.90;;;;;;4949889;29;20035;-83
2021/01/27 01:15:32;;;;;;;6.63;2.60;;;1.70;99.90;;;;;;4958187;28;20061;-83
2021/01/27 01:17:58;;;;;;;5.20;2.35;;;1.70;99.90;;;;;;4987013;28;20034;-82
2021/01/27 01:20:24;;;;;;;6.60;2.47;;;1.70;99.90;;;;;;4970917;28;20062;-83
2021/01/27 01:22:52;;;;;;;8.95;2.47;;;1.70;99.90;;;;;;4986996;28;20083;-83
2021/01/27 01:25:20;;;;;;;3.38;1.55;;;1.70;99.90;;;;;;4987146;28;20066;-83
2021/01/27 01:27:46;;;;;;;7.13;2.75;;;1.70;99.90;;;;;;4986872;28;20038;-83
2021/01/27 01:30:23;;;;;;;8.35;3.13;;;1.70;99.90;;;;;;4969234;28;20097;-83
2021/01/27 01:32:48;;;;;;;6.70;2.65;;;1.70;99.90;;;;;;4951516;29;20035;-82
2021/01/27 01:35:17;;;;;;;4.28;2.25;;;1.70;99.90;;;;;;4967361;29;20036;-83
2021/01/27 01:37:43;;;;;;;6.05;2.53;;;1.70;99.90;;;;;;4951311;29;20038;-83
2021/01/27 01:40:11;;;;;;;5.78;2.67;;;1.70;99.90;;;;;;4967542;29;20039;-83
2021/01/27 01:42:38;;;;;;;7.30;2.95;;;1.70;99.90;;;;;;4951119;29;20062;-83
2021/01/27 01:45:14;;;;;;;4.60;1.98;;;1.70;99.90;;;;;;4967286;29;20504;-83
2021/01/27 01:47:39;;;;;;;6.70;3.15;;;1.60;99.90;;;;;;4951081;29;20031;-83
2021/01/27 01:50:05;;;;;;;6.28;2.05;;;1.70;99.90;;;;;;4967155;29;20102;-84
2021/01/27 01:52:31;;;;;;;6.00;3.25;;;1.60;99.90;;;;;;4950807;29;20031;-83
2021/01/27 01:54:57;;;;;;;4.45;2.58;;;1.70;99.90;;;;;;4967316;29;20102;-83
2021/01/27 01:57:27;;;;;;;5.80;2.92;;;1.70;99.90;;;;;;4950902;29;20035;-83
2021/01/27 01:59:59;;;;;;;7.00;3.55;;;1.70;99.90;;;;;;4966976;29;20048;-83
2021/01/27 02:02:26;;;;;;;6.70;5.43;;;1.70;99.90;;;;;;4950759;29;20039;-83
2021/01/27 02:05:21;;;;;;;6.45;3.53;;;1.70;99.90;;;;;;4950925;29;20047;-84
2021/01/27 02:07:47;;;;;;;5.78;2.92;;;1.70;99.90;;;;;;4930350;29;20115;-83
2021/01/27 02:10:17;;;;;;;6.05;3.20;;;1.70;99.90;;;;;;4930799;29;20044;-83
2021/01/27 02:12:57;;;;;;;6.88;2.97;;;1.80;99.90;;;;;;4930567;29;20094;-83
2021/01/27 02:15:46;;;;;;;13.70;3.90;;;1.70;99.90;;;;;;4919905;29;20046;-83
2021/01/27 02:18:39;;;;;;;4.63;2.20;;;1.80;99.90;;;;;;4949733;29;20614;-83
2021/01/27 02:21:41;;;;;;;5.97;3.20;;;1.80;99.90;;;;;;4933671;29;20083;-83
2021/01/27 02:24:31;;;;;;;5.50;2.55;;;1.80;99.90;;;;;;4933868;29;20062;-83
2021/01/27 02:27:17;;;;;;;5.63;2.53;;;1.80;99.90;;;;;;4949504;29;20027;-83
2021/01/27 02:29:50;;;;;;;4.88;2.45;;;1.80;99.90;;;;;;4965775;29;20479;-82
2021/01/27 02:32:36;;;;;;;4.15;1.80;;;1.80;99.90;;;;;;4916490;29;20040;-83
2021/01/27 02:35:16;;;;;;;4.30;2.00;;;1.80;99.90;;;;;;4947767;29;20060;-83
2021/01/27 02:37:51;;;;;;;7.70;3.22;;;1.80;99.90;;;;;;4931807;29;20103;-83
2021/01/27 02:40:26;;;;;;;6.45;2.03;;;1.80;99.90;;;;;;4930458;29;20094;-83
2021/01/27 02:43:05;;;;;;;4.50;2.15;;;1.80;99.90;;;;;;4946295;29;20128;-82
2021/01/27 02:45:34;;;;;;;3.92;2.00;;;1.90;99.90;;;;;;4966656;29;20031;-82
2021/01/27 02:48:01;;;;;;;4.40;1.50;;;1.90;99.90;;;;;;4966543;29;20086;-84
2021/01/27 02:50:42;;;;;;;4.97;2.60;;;1.90;99.90;;;;;;4950347;29;20050;-84
2021/01/27 02:53:24;;;;;;;4.35;1.88;;;1.90;99.90;;;;;;4950103;29;20059;-83
2021/01/27 02:55:56;;;;;;;7.07;2.33;;;1.90;99.90;;;;;;4966455;29;20035;-83
2021/01/27 02:58:30;;;;;;;4.25;1.67;;;1.90;99.90;;;;;;4966316;29;20095;-83
2021/01/27 03:01:03;;;;;;;2.65;0.98;;;1.90;99.90;;;;;;4950285;29;20035;-84
2021/01/27 03:03:36;;;;;;;4.13;1.83;;;1.90;99.90;;;;;;4966144;29;20031;-83
2021/01/27 03:06:06;;;;;;;3.58;1.40;;;1.90;99.90;;;;;;4965988;29;20035;-83
2021/01/27 03:08:37;;;;;;;3.33;1.50;;;1.90;99.90;;;;;;4965935;29;20056;-84
2021/01/27 03:11:14;;;;;;;3.95;1.30;;;2.00;99.90;;;;;;4966128;29;20178;-83
2021/01/27 03:13:44;;;;;;;3.10;1.40;;;1.90;99.90;;;;;;4950059;29;20051;-82
2021/01/27 03:16:18;;;;;;;3.45;1.42;;;1.90;99.90;;;;;;4977274;28;20102;-83
2021/01/27 03:18:49;;;;;;;2.80;1.02;;;2.00;99.90;;;;;;4969203;28;20473;-82
2021/01/27 03:21:25;;;;;;;3.72;0.80;;;2.00;99.90;;;;;;4969121;28;20031;-82
2021/01/27 03:23:55;;;;;;;2.97;0.90;;;2.00;99.90;;;;;;4970790;28;20129;-83
2021/01/27 03:26:37;;;;;;;4.68;0.98;;;2.00;99.90;;;;;;4972969;28;20027;-83
2021/01/27 03:29:24;;;;;;;4.05;0.90;;;2.00;99.90;;;;;;4972851;28;20054;-83
2021/01/27 03:31:53;;;;;;;3.03;0.70;;;2.00;99.90;;;;;;4974436;28;20039;-83
2021/01/27 03:34:53;;;;;;;3.25;1.10;;;1.90;99.90;;;;;;4969850;29;20412;-83
2021/01/27 03:37:29;;;;;;;3.55;1.00;;;1.90;99.90;;;;;;4962239;29;20043;-83
2021/01/27 03:40:00;;;;;;;1.80;0.60;;;1.90;99.90;;;;;;4953770;29;20027;-84
2021/01/27 03:42:32;;;;;;;2.58;0.80;;;1.90;99.90;;;;;;4953505;29;20062;-84
2021/01/27 03:45:04;;;;;;;2.40;0.90;;;1.90;99.90;;;;;;4969597;29;20035;-83
2021/01/27 03:48:00;;;;;;;2.58;0.80;;;1.90;99.90;;;;;;4953240;29;20031;-84
2021/01/27 03:50:26;;;;;;;1.83;0.60;;;1.90;99.90;;;;;;4953441;29;20130;-83
2021/01/27 03:53:03;;;;;;;4.57;0.90;;;1.90;99.90;;;;;;4953323;29;20078;-83
2021/01/27 03:55:29;;;;;;;2.22;0.82;;;1.90;99.90;;;;;;4969447;29;20035;-83
2021/01/27 03:58:31;;;;;;;3.17;0.80;;;1.90;99.90;;;;;;4953305;29;20038;-84
2021/01/27 04:01:09;;;;;;;3.20;0.70;;;1.90;99.90;;;;;;4970078;29;20028;-83
2021/01/27 04:03:35;;;;;;;3.70;0.73;;;1.90;99.90;;;;;;4933929;29;20031;-83
2021/01/27 04:06:02;;;;;;;2.33;0.90;;;1.90;99.90;;;;;;4949891;29;20038;-83
2021/01/27 04:08:28;;;;;;;2.65;0.70;;;1.90;99.90;;;;;;4964657;29;20139;-83
2021/01/27 04:10:53;;;;;;;2.38;0.73;;;1.90;99.90;;;;;;4969209;29;20039;-83
2021/01/27 04:13:19;;;;;;;2.08;0.60;;;1.90;99.90;;;;;;4968914;29;20032;-83
2021/01/27 04:15:45;;;;;;;2.60;0.95;;;1.80;99.90;;;;;;4960878;28;20027;-83
2021/01/27 04:18:14;;;;;;;2.70;1.05;;;1.80;99.90;;;;;;4988366;28;20086;-84
2021/01/27 04:20:39;;;;;;;5.90;0.88;;;1.80;99.90;;;;;;4972256;28;20049;-83
2021/01/27 04:23:06;;;;;;;4.32;0.90;;;1.70;99.90;;;;;;4972269;28;20035;-84
2021/01/27 04:25:31;;;;;;;2.20;0.80;;;1.70;99.90;;;;;;4972471;28;20388;-83
2021/01/27 04:27:57;;;;;;;4.00;1.00;;;1.70;99.90;;;;;;4972292;28;20103;-83
2021/01/27 04:30:30;;;;;;;4.53;1.13;;;1.70;99.90;;;;;;4985483;28;20102;-83
2021/01/27 04:32:57;;;;;;;3.13;1.20;;;1.70;99.90;;;;;;4952848;29;20031;-83
2021/01/27 04:35:23;;;;;;;2.83;0.95;;;1.70;99.90;;;;;;4952892;29;20037;-84
2021/01/27 04:37:49;;;;;;;7.32;1.50;;;1.70;99.90;;;;;;4953306;29;20034;-84
2021/01/27 04:40:24;;;;;;;2.55;1.02;;;1.70;99.90;;;;;;4952371;29;20038;-83
2021/01/27 04:42:51;;;;;;;5.43;1.10;;;1.70;99.90;;;;;;4952448;29;20066;-83
2021/01/27 04:45:18;;;;;;;3.33;0.70;;;1.70;99.90;;;;;;4968394;29;20027;-84
2021/01/27 04:48:14;;;;;;;2.50;0.80;;;1.70;99.90;;;;;;4952449;29;20130;-83
2021/01/27 04:50:58;;;;;;;1.90;0.70;;;1.70;99.90;;;;;;4968320;29;20043;-83
2021/01/27 04:53:55;;;;;;;2.88;0.88;;;1.70;99.90;;;;;;4952282;29;20039;-84
2021/01/27 04:57:02;;;;;;;2.83;1.15;;;1.70;99.90;;;;;;4952233;29;20031;-83
2021/01/27 05:00:04;;;;;;;3.75;1.10;;;1.80;99.90;;;;;;4940491;29;20062;-83
2021/01/27 05:02:56;;;;;;;3.55;0.80;;;1.80;99.90;;;;;;4932142;29;20050;-84
2021/01/27 05:05:27;;;;;;;2.70;0.70;;;1.80;99.90;;;;;;4959603;29;20125;-83
2021/01/27 05:07:56;;;;;;;2.53;0.85;;;1.80;99.90;;;;;;4961121;23;20055;-86
2021/01/27 05:10:25;;;;;;;3.17;1.33;;;1.80;99.90;;;;;;4968497;29;20050;-84
2021/01/27 05:13:02;;;;;;;3.13;1.35;;;1.80;99.90;;;;;;4968884;29;20061;-86
2021/01/27 05:15:28;;;;;;;4.15;1.30;;;1.80;99.90;;;;;;4968869;29;20492;-87
2021/01/27 05:17:54;;;;;;;7.38;1.63;;;1.80;99.90;;;;;;4969220;29;20035;-87
2021/01/27 05:20:21;;;;;;;4.13;1.40;;;1.80;99.90;;;;;;4968756;29;20036;-86
2021/01/27 05:22:47;;;;;;;3.33;1.23;;;1.80;99.90;;;;;;4968575;29;20027;-86
2021/01/27 05:25:34;;;;;;;3.17;1.00;;;1.80;99.90;;;;;;4968356;29;20035;-86
2021/01/27 05:28:03;;;;;;;4.35;1.65;;;1.80;99.90;;;;;;4968840;29;20035;-87
2021/01/27 05:30:47;;;;;;;3.90;1.52;;;1.80;99.90;;;;;;4968247;29;20111;-84
2021/01/27 05:33:12;;;;;;;4.18;1.23;;;1.80;99.90;;;;;;4968573;28;20464;-86
2021/01/27 05:35:40;;;;;;;4.93;1.67;;;1.80;99.90;;;;;;4968120;29;20035;-86
2021/01/27 05:38:29;;;;;;;3.05;1.55;;;1.80;99.90;;;;;;4968624;29;20160;-87
2021/01/27 05:41:18;;;;;;;3.47;1.27;;;1.80;99.90;;;;;;4968293;29;20467;-87
2021/01/27 05:43:44;;;;;;;4.90;1.20;;;1.80;99.90;;;;;;4968162;29;20027;-86
2021/01/27 05:46:16;;;;;;;4.55;1.45;;;1.80;99.90;;;;;;4967475;28;20468;-86
2021/01/27 05:48:48;;;;;;;4.95;1.80;;;1.80;99.90;;;;;;4967747;29;20038;-86
2021/01/27 05:51:36;;;;;;;2.08;0.80;;;1.70;99.90;;;;;;4965793;28;20049;-87
2021/01/27 05:54:19;;;;;;;3.05;1.25;;;1.80;99.90;;;;;;4964635;29;20038;-87
2021/01/27 05:56:44;;;;;;;2.85;1.50;;;1.80;99.90;;;;;;4932440;29;20044;-87
2021/01/27 05:59:23;;;;;;;6.38;1.13;;;1.70;99.90;;;;;;4932945;29;20043;-87
2021/01/27 06:01:50;;;;;;;5.50;1.80;;;1.70;99.90;;;;;;4948547;29;20480;-86
2021/01/27 06:04:21;;;;;;;3.30;1.05;;;1.60;99.90;;;;;;4937265;29;20051;-84
2021/01/27 06:06:50;;;;;;;3.38;1.45;;;1.60;99.90;;;;;;4966474;29;20115;-84
2021/01/27 06:09:50;;;;;;;5.93;1.00;;;1.60;99.90;;;;;;4966854;29;20043;-84
2021/01/27 06:12:18;;;;;;;3.78;1.55;;;1.60;99.90;;;;;;4967268;29;20406;-85
2021/01/27 06:14:45;;;;;;;3.35;1.40;;;1.60;99.90;;;;;;4950879;29;20039;-85
2021/01/27 06:17:27;;;;;;;4.70;1.30;;;1.60;99.90;;;;;;4939958;29;20034;-84
2021/01/27 06:20:01;;;;;;;4.38;1.00;;;1.60;99.90;;;;;;4958331;29;20091;-84
2021/01/27 06:22:41;;;;;;;2.97;0.90;;;1.50;99.90;;;;;;4950198;28;20055;-85
2021/01/27 06:25:48;;;;;;;2.65;1.10;;;1.50;99.90;;;;;;4966405;28;20042;-84
2021/01/27 06:29:05;;;;;;;2.97;1.42;;;1.50;99.90;;;;;;4950523;29;20108;-84
2021/01/27 06:32:01;;;;;;;3.13;1.08;;;1.40;99.90;;;;;;4923050;29;20046;-83
2021/01/27 06:34:57;;;;;;;3.50;2.08;;;1.40;99.90;;;;;;4954637;29;20027;-83
2021/01/27 06:37:31;;;;;;;2.55;1.00;;;1.40;99.90;;;;;;4947147;29;20287;-84
2021/01/27 06:40:18;;;;;;;2.10;0.88;;;1.40;99.90;;;;;;4931679;29;20043;-84
2021/01/27 06:43:00;;;;;;;2.60;1.05;;;1.40;99.90;;;;;;4958947;29;20032;-84
2021/01/27 06:45:54;;;;;;;3.58;1.42;;;1.50;99.90;;;;;;4942714;29;20063;-84
2021/01/27 06:48:49;;;;;;;1.90;0.70;;;1.50;99.90;;;;;;4965924;28;20122;-84
2021/01/27 06:51:24;;;;;;;2.72;1.40;;;1.40;99.90;;;;;;4963364;28;20047;-84
2021/01/27 06:54:16;;;;;;;2.75;1.10;;;1.40;99.90;;;;;;4967534;29;20041;-85
2021/01/27 06:57:15;;;;;;;2.95;1.33;;;1.50;99.90;;;;;;4947675;29;20031;-84
2021/01/27 07:00:02;;;;;;;2.33;1.10;;;1.50;99.90;;;;;;4949325;28;20035;-84
2021/01/27 07:03:01;;;;;;;3.35;1.50;;;1.40;99.90;;;;;;4965136;29;20051;-85
2021/01/27 07:05:37;;;;;;;3.38;1.45;;;1.50;99.90;;;;;;4962116;29;20032;-85
2021/01/27 07:08:33;;;;;;;4.80;1.08;;;1.40;99.90;;;;;;4966344;29;20047;-84
2021/01/27 07:11:03;;;;;;;2.30;1.20;;;1.40;99.90;;;;;;4948259;28;20104;-84
2021/01/27 07:13:41;;;;;;;2.60;1.23;;;1.40;99.90;;;;;;4946434;29;20024;-84
2021/01/27 07:16:35;;;;;;;2.45;1.40;;;1.30;99.90;;;;;;4965670;29;20039;-85
2021/01/27 07:19:06;;;;;;;2.67;1.45;;;1.30;99.90;;;;;;4964868;29;20098;-84
2021/01/27 07:22:13;;;;;;;2.40;1.08;;;1.30;99.90;;;;;;4965481;29;20541;-84
2021/01/27 07:24:56;;;;;;;3.13;1.63;;;1.30;99.90;;;;;;4940882;29;20055;-83
2021/01/27 07:27:22;;;;;;;4.13;1.83;;;1.30;99.90;;;;;;4963429;29;20055;-84
2021/01/27 07:30:04;;;;;;;2.58;1.50;;;1.30;99.90;;;;;;4963031;29;20047;-83
2021/01/27 07:32:54;;;;;;;4.10;2.10;;;1.30;99.90;;;;;;4962106;29;20067;-84
2021/01/27 07:35:29;;;;;;;3.47;1.65;;;1.30;99.90;;;;;;4950102;29;20031;-85
2021/01/27 07:38:26;;;;;;;3.15;1.77;;;1.30;99.90;;;;;;4957763;28;20054;-84
2021/01/27 07:41:05;;;;;;;2.78;1.60;;;1.30;99.90;;;;;;4943627;29;20051;-85
2021/01/27 07:43:56;;;;;;;2.90;1.77;;;1.30;99.90;;;;;;4963852;29;20032;-85
2021/01/27 07:46:45;;;;;;;3.05;1.58;;;1.30;99.90;;;;;;4963929;29;20050;-85
2021/01/27 07:49:12;;;;;;;3.10;2.08;;;1.40;99.90;;;;;;4945602;29;20051;-85
2021/01/27 07:51:59;;;;;;;4.25;1.58;;;1.40;99.90;;;;;;4964855;29;20023;-85
2021/01/27 07:54:31;;;;;;;4.18;1.85;;;1.40;99.90;;;;;;4977272;28;20114;-86
2021/01/27 07:57:06;;;;;;;4.70;3.05;;;1.40;99.90;;;;;;4950023;29;20024;-85
2021/01/27 07:59:45;;;;;;;5.68;2.88;;;1.40;99.90;;;;;;4959815;29;20046;-84
2021/01/27 08:02:18;;;;;;;3.85;1.98;;;1.40;99.90;;;;;;4979998;28;20034;-86
2021/01/27 08:04:47;;;;;;;4.28;2.65;;;1.40;99.90;;;;;;4962912;29;20030;-85
2021/01/27 08:07:24;;;;;;;5.20;2.08;;;1.50;99.90;;;;;;4944969;29;20048;-86
2021/01/27 08:09:51;;;;;;;2.85;1.55;;;1.50;99.90;;;;;;4952074;28;20066;-85
2021/01/27 08:12:27;;;;;;;3.78;2.47;;;1.50;99.90;;;;;;4949358;29;20058;-85
2021/01/27 08:15:32;;;;;;;2.72;1.40;;;1.50;99.90;;;;;;4947124;29;20440;-85
2021/01/27 08:18:03;;;;;;;3.42;1.63;;;1.60;99.90;;;;;;4954315;29;20063;-86
2021/01/27 08:20:38;;;;;;;3.00;1.60;;;1.60;99.90;;;;;;4945875;29;20076;-85
2021/01/27 08:23:07;;;;;;;3.10;2.22;;;1.60;99.90;;;;;;4946444;29;20119;-86
2021/01/27 08:25:51;;;;;;;2.00;1.25;;;1.60;99.90;;;;;;4932443;29;20048;-85
2021/01/27 08:28:23;;;;;;;2.70;1.55;;;1.60;99.90;;;;;;4946272;29;20034;-85
2021/01/27 08:31:19;;;;;;;3.13;1.80;;;1.60;99.90;;;;;;4948316;29;20122;-85
2021/01/27 08:33:49;;;;;;;4.03;2.15;;;1.60;99.90;;;;;;4917225;29;20038;-85
2021/01/27 08:36:33;;;;;;;3.35;2.25;;;1.60;99.90;;;;;;4946686;29;20032;-85
2021/01/27 08:39:07;;;;;;;3.25;2.13;;;1.70;99.90;;;;;;4964448;29;20019;-85
2021/01/27 08:41:57;;;;;;;3.15;1.98;;;1.70;99.90;;;;;;4964008;29;20055;-86
2021/01/27 08:44:22;;;;;;;3.13;1.70;;;1.70;99.90;;;;;;4932602;29;20038;-85
2021/01/27 08:46:50;;;;;;;4.35;2.10;;;1.70;99.90;;;;;;4948143;29;20036;-86
2021/01/27 08:49:37;;;;;;;4.25;2.70;;;1.70;99.90;;;;;;4947104;29;20043;-86
2021/01/27 08:52:09;;;;;;;3.47;1.95;;;1.70;99.90;;;;;;4943981;29;20040;-87
2021/01/27 08:54:35;;;;;;;4.55;2.25;;;1.80;99.90;;;;;;4959140;29;20028;-86
2021/01/27 08:57:25;;;;;;;4.22;2.75;;;1.80;99.90;;;;;;4947907;29;20039;-86
2021/01/27 08:59:58;;;;;;;6.80;3.58;;;1.80;99.90;;;;;;4962586;29;20028;-87
2021/01/27 09:02:37;;;;;;;8.75;4.80;;;1.80;99.90;;;;;;4949444;29;20079;-85
2021/01/27 09:05:26;;;;;;;5.78;3.67;;;1.90;99.90;;;;;;4947949;29;20059;-86
2021/01/27 09:08:10;;;;;;;5.65;4.00;;;1.90;99.90;;;;;;4923669;29;20071;-85
2021/01/27 09:10:39;;;;;;;5.22;3.45;;;1.90;99.90;;;;;;4921596;29;20577;-86
2021/01/27 09:13:34;;;;;;;6.40;3.97;;;1.90;99.90;;;;;;4911371;29;20044;-85
2021/01/27 09:16:27;;;;;;;5.28;3.70;;;1.90;99.90;;;;;;4898069;29;20035;-85
2021/01/27 09:19:03;;;;;;;5.47;3.92;;;2.00;99.90;;;;;;4911592;29;20132;-86
2021/01/27 09:21:31;;;;;;;5.35;2.40;;;2.00;99.90;;;;;;4926638;29;20035;-85
2021/01/27 09:24:04;;;;;;;3.38;2.25;;;2.00;99.90;;;;;;4917573;29;20060;-85
2021/01/27 09:26:38;;;;;;;4.32;2.85;;;2.10;99.90;;;;;;4911065;29;20624;-85
2021/01/27 09:29:12;;;;;;;5.22;3.28;;;2.10;99.90;;;;;;4908264;29;20066;-85
2021/01/27 09:31:38;;;;;;;3.30;2.40;;;2.20;99.90;;;;;;4909917;29;20100;-85
2021/01/27 09:34:29;;;;;;;3.90;1.95;;;2.20;99.90;;;;;;4894782;29;20044;-85
2021/01/27 09:37:22;;;;;;;4.18;2.38;;;2.20;99.90;;;;;;4909240;29;20032;-85
2021/01/27 09:40:06;;;;;;;4.10;2.30;;;2.20;99.90;;;;;;4910399;29;20032;-85
2021/01/27 09:42:32;;;;;;;3.22;2.08;;;2.30;99.90;;;;;;4900971;29;20059;-85
2021/01/27 09:45:09;;;;;;;4.13;2.60;;;2.30;99.90;;;;;;4919544;29;20374;-86
2021/01/27 09:47:38;;;;;;;5.53;3.83;;;2.30;99.90;;;;;;4965580;29;20039;-85
2021/01/27 09:50:06;;;;;;;6.40;3.90;;;2.40;99.90;;;;;;4976798;28;20058;-85
2021/01/27 09:52:32;;;;;;;5.00;3.55;;;2.40;99.90;;;;;;4949927;28;20050;-86
2021/01/27 09:55:06;;;;;;;4.90;2.50;;;2.40;99.90;;;;;;4965938;28;20046;-85
2021/01/27 09:57:35;;;;;;;6.38;3.67;;;2.40;99.90;;;;;;4961875;29;20027;-85
2021/01/27 10:00:00;;;;;;;5.82;4.05;;;2.40;99.90;;;;;;4976565;28;20039;-85
2021/01/27 10:02:33;;;;;;;6.80;4.85;;;2.40;99.90;;;;;;4951831;29;20079;-85
2021/01/27 10:05:41;;;;;;;7.80;4.13;;;2.50;99.90;;;;;;4981695;28;20123;-85
2021/01/27 10:08:30;;;;;;;4.00;2.88;;;2.50;99.90;;;;;;4940221;29;20044;-86
2021/01/27 10:11:07;;;;;;;5.07;2.43;;;2.60;99.90;;;;;;4939088;29;20040;-85
2021/01/27 10:13:34;;;;;;;5.03;2.90;;;2.60;99.90;;;;;;4920191;29;20036;-86
2021/01/27 10:16:14;;;;;;;4.25;2.53;;;2.50;99.90;;;;;;4924802;29;20039;-85
2021/01/27 10:18:42;;;;;;;6.05;3.95;;;2.60;99.90;;;;;;4921870;29;20476;-85
2021/01/27 10:21:16;;;;;;;6.97;4.38;;;2.60;99.90;;;;;;4921465;29;20687;-86
2021/01/27 10:23:44;;;;;;;4.03;2.63;;;2.70;99.90;;;;;;4922869;29;20036;-86
2021/01/27 10:26:34;;;;;;;7.15;4.82;;;2.70;99.90;;;;;;4939685;29;20032;-85
2021/01/27 10:29:10;;;;;;;8.05;5.18;;;2.70;99.90;;;;;;4911677;29;20158;-85
2021/01/27 10:31:37;;;;;;;7.95;4.80;;;2.80;99.90;;;;;;4941569;29;20076;-85
2021/01/27 10:34:03;;;;;;;5.05;3.03;;;2.80;99.90;;;;;;4921822;29;20512;-86
2021/01/27 10:36:38;;;;;;;5.28;3.63;;;2.80;99.90;;;;;;4943441;29;20027;-85
2021/01/27 10:39:27;;;;;;;4.50;3.33;;;2.80;99.90;;;;;;4923364;29;20048;-86
2021/01/27 10:42:14;;;;;;;4.75;3.40;;;2.90;99.90;;;;;;4924602;29;20032;-85
2021/01/27 10:44:41;;;;;;;5.18;3.28;;;2.90;99.90;;;;;;4938200;29;20091;-86
2021/01/27 10:47:10;;;;;;;4.85;3.92;;;3.00;99.90;;;;;;4964765;29;20057;-85
2021/01/27 10:49:42;;;;;;;6.20;4.53;;;2.90;99.90;;;;;;4965946;28;20070;-85
2021/01/27 10:52:21;;;;;;;5.45;3.53;;;3.00;99.90;;;;;;4962542;28;20066;-85
2021/01/27 10:54:48;;;;;;;3.85;2.65;;;3.00;99.90;;;;;;4967095;28;20024;-87
2021/01/27 10:57:22;;;;;;;4.95;3.55;;;3.00;99.90;;;;;;4973847;28;20035;-86
2021/01/27 10:59:48;;;;;;;4.57;3.58;;;3.00;99.90;;;;;;4979262;28;20031;-90
2021/01/27 11:02:14;;;;;;;5.40;3.80;;;3.10;99.90;;;;;;4940573;29;20041;-86
2021/01/27 11:04:39;;;;;;;4.72;3.10;;;3.10;99.90;;;;;;4964084;29;20055;-86
2021/01/27 11:07:07;;;;;;;5.13;2.47;;;3.10;99.90;;;;;;4979728;28;20090;-85
2021/01/27 11:09:33;;;;;;;6.88;4.13;;;3.10;99.90;;;;;;4946309;29;20039;-85
2021/01/27 11:11:59;;;;;;;4.72;3.58;;;3.10;99.90;;;;;;4981279;28;20102;-85
2021/01/27 11:14:24;;;;;;;4.22;2.97;;;3.20;99.90;;;;;;4962544;29;20118;-85
2021/01/27 11:16:50;;;;;;;6.45;4.10;;;3.20;99.90;;;;;;4946291;29;20039;-85
2021/01/27 11:19:16;;;;;;;6.47;3.70;;;3.20;99.90;;;;;;4963949;29;20091;-85
2021/01/27 11:21:41;;;;;;;7.38;3.55;;;3.20;99.90;;;;;;4963068;29;20039;-85
2021/01/27 11:24:07;;;;;;;5.97;3.70;;;3.30;99.90;;;;;;4946263;29;20035;-85
2021/01/27 11:26:33;;;;;;;6.13;4.00;;;3.30;99.90;;;;;;4964539;29;20112;-85
2021/01/27 11:29:00;;;;;;;5.30;3.92;;;3.30;99.90;;;;;;4980032;28;20042;-85
2021/01/27 11:31:27;;;;;;;6.63;4.45;;;3.40;99.90;;;;;;4959161;29;20031;-85
2021/01/27 11:33:53;;;;;;;7.30;4.18;;;3.40;99.90;;;;;;4975982;28;20031;-85
2021/01/27 11:36:19;;;;;;;5.80;3.80;;;3.40;99.90;;;;;;4961641;29;20038;-85
2021/01/27 11:38:46;;;;;;;8.70;5.15;;;3.50;99.90;;;;;;4946460;29;20023;-86
2021/01/27 11:41:12;;;;;;;6.90;5.03;;;3.50;99.90;;;;;;4946529;29;20039;-85
2021/01/27 11:43:41;;;;;;;6.35;4.30;;;3.50;99.90;;;;;;4961956;29;20036;-85
2021/01/27 11:46:08;;;;;;;8.02;5.35;;;3.50;99.90;;;;;;4964218;29;20039;-85
2021/01/27 11:48:34;;;;;;;6.03;4.43;;;3.50;99.90;;;;;;4965655;29;20141;-85
2021/01/27 11:51:04;;;;;;;10.02;6.18;;;3.60;99.90;;;;;;4965346;29;20070;-85
2021/01/27 11:53:30;;;;;;;10.70;5.03;;;3.60;99.90;;;;;;4966147;28;20027;-85
2021/01/27 11:55:56;;;;;;;10.07;7.07;;;3.70;99.90;;;;;;4965639;28;20062;-85
2021/01/27 11:58:23;;;;;;;9.88;6.40;;;3.70;99.90;;;;;;4963010;29;20079;-85
2021/01/27 12:00:49;;;;;;;12.45;6.88;;;3.70;99.90;;;;;;4965862;29;20023;-85
2021/01/27 12:03:14;;;;;;;10.38;6.65;;;3.80;99.90;;;;;;4968264;29;20035;-85
2021/01/27 12:05:40;;;;;;;13.93;8.43;;;3.80;99.90;;;;;;4983747;28;20078;-85
2021/01/27 12:08:06;;;;;;;13.93;8.20;;;3.80;99.90;;;;;;4967935;29;20055;-85
2021/01/27 12:10:32;;;;;;;14.48;9.63;;;3.90;99.90;;;;;;4949370;29;20127;-86
2021/01/27 12:12:58;;;;;;;12.18;8.18;;;3.90;99.90;;;;;;4968045;28;20031;-85
2021/01/27 12:15:24;;;;;;;14.88;9.95;;;3.90;99.90;;;;;;4983259;28;20055;-86
2021/01/27 12:17:51;;;;;;;21.00;13.73;;;3.90;99.90;;;;;;4969386;28;20031;-85
2021/01/27 12:20:18;;;;;;;22.15;13.80;;;4.00;99.90;;;;;;4967727;29;20028;-86
2021/01/27 12:22:44;;;;;;;21.73;14.27;;;4.00;99.90;;;;;;4969047;29;20046;-86
2021/01/27 12:25:10;;;;;;;25.02;16.20;;;4.00;99.90;;;;;;4983726;28;20039;-85
2021/01/27 12:27:36;;;;;;;19.98;12.48;;;4.10;99.90;;;;;;4970691;28;20099;-85
2021/01/27 12:30:04;;;;;;;20.20;12.73;;;4.10;99.90;;;;;;4983916;28;20065;-85
2021/01/27 12:32:30;;;;;;;22.55;12.98;;;4.20;99.90;;;;;;4949543;29;20038;-84
2021/01/27 12:34:56;;;;;;;26.85;15.48;;;4.30;99.90;;;;;;4951339;29;20034;-85
2021/01/27 12:37:21;;;;;;;23.42;13.85;;;4.30;99.90;;;;;;4970674;28;20036;-84
2021/01/27 12:39:47;;;;;;;28.88;16.92;;;4.40;99.90;;;;;;4967650;29;20031;-84
2021/01/27 12:42:13;;;;;;;28.30;16.08;;;4.40;99.90;;;;;;4967454;29;20126;-86
2021/01/27 12:44:40;;;;;;;27.42;16.15;;;4.40;99.90;;;;;;4967259;29;20055;-86
2021/01/27 12:47:06;;;;;;;26.75;15.55;;;4.50;99.90;;;;;;4983465;28;20035;-85
2021/01/27 12:49:32;;;;;;;30.08;17.60;;;4.50;99.90;;;;;;4951328;29;20493;-85
2021/01/27 12:51:58;;;;;;;32.00;19.33;;;4.50;99.90;;;;;;4967313;29;20030;-85
2021/01/27 12:54:23;;;;;;;29.90;16.00;;;4.60;99.90;;;;;;4967275;29;20034;-85
2021/01/27 12:56:49;;;;;;;31.67;17.60;;;4.60;99.90;;;;;;4947329;29;20019;-85
2021/01/27 12:59:15;;;;;;;35.92;19.23;;;4.60;99.90;;;;;;4951315;29;20412;-84
2021/01/27 13:01:40;;;;;;;30.85;18.08;;;4.60;99.90;;;;;;4967453;29;20027;-85
2021/01/27 13:04:06;;;;;;;39.75;22.25;;;4.60;99.90;;;;;;4966262;29;20040;-85
2021/01/27 13:06:31;;;;;;;29.80;17.45;;;4.60;99.90;;;;;;4972180;28;20043;-84
2021/01/27 13:08:57;;;;;;;32.45;18.00;;;4.60;99.90;;;;;;4954695;28;20039;-84
2021/01/27 13:11:23;;;;;;;32.42;19.65;;;4.60;99.90;;;;;;4971007;28;20035;-84
2021/01/27 13:13:49;;;;;;;37.80;21.48;;;4.70;99.90;;;;;;4964999;28;20034;-85
2021/01/27 13:16:14;;;;;;;31.27;17.38;;;4.60;99.90;;;;;;4968747;28;20034;-85
2021/01/27 13:18:41;;;;;;;30.50;16.00;;;4.60;99.90;;;;;;4970819;28;20030;-85
2021/01/27 13:21:08;;;;;;;27.60;14.90;;;4.70;99.90;;;;;;4970900;28;20038;-83
2021/01/27 13:23:35;;;;;;;31.60;18.67;;;4.70;99.90;;;;;;4969468;28;20069;-84
2021/01/27 13:26:02;;;;;;;29.73;16.58;;;4.70;99.90;;;;;;4970708;28;20034;-85
2021/01/27 13:28:29;;;;;;;32.13;19.38;;;4.70;99.90;;;;;;4970606;28;20039;-85
2021/01/27 13:30:54;;;;;;;35.10;20.42;;;4.70;99.90;;;;;;4968254;28;20035;-84